Time;durP1;ratioP1;P1;durP2;ratioP2;P2;SDS_P1;SDS_P2;PMS_P1;PMS_P2;Temp;Humidity;BMP_temperature;BMP_pressure;BME280_temperature;BME280_humidity;BME280_pressure;Samples;Min_cycle;Max_cycle;Signal;HPM_P1;HPM_P2
2021/04/30 00:00:57;;;;;;;7.47;6.13;;;7.30;99.90;;;;;;5011273;28;20295;-78
2021/04/30 00:03:23;;;;;;;7.60;6.90;;;7.40;99.90;;;;;;5012574;28;20184;-78
2021/04/30 00:05:48;;;;;;;6.97;6.33;;;7.40;99.90;;;;;;5012050;28;20242;-77
2021/04/30 00:08:14;;;;;;;6.07;5.53;;;7.40;99.90;;;;;;5027721;28;20209;-78
2021/04/30 00:10:41;;;;;;;9.43;6.53;;;7.40;99.90;;;;;;5012000;28;20206;-77
2021/04/30 00:13:07;;;;;;;6.50;5.73;;;7.50;99.90;;;;;;5012003;28;20420;-77
2021/04/30 00:15:33;;;;;;;6.77;6.20;;;7.50;99.90;;;;;;5012360;28;20417;-81
2021/04/30 00:18:04;;;;;;;7.27;6.50;;;7.50;99.90;;;;;;5012473;28;20424;-82
2021/04/30 00:20:31;;;;;;;6.80;5.60;;;7.50;99.90;;;;;;5012483;28;20501;-82
2021/04/30 00:22:57;;;;;;;7.50;6.73;;;7.50;99.90;;;;;;5012389;28;20911;-82
2021/04/30 00:25:22;;;;;;;7.97;7.13;;;7.50;99.90;;;;;;5012326;28;20433;-82
2021/04/30 00:27:48;;;;;;;7.10;6.20;;;7.50;99.90;;;;;;5012231;28;20236;-82
2021/04/30 00:30:14;;;;;;;6.80;6.20;;;7.50;99.90;;;;;;5011847;28;20204;-84
2021/04/30 00:32:40;;;;;;;7.10;6.10;;;7.50;99.90;;;;;;5011649;28;20190;-84
2021/04/30 00:35:06;;;;;;;7.87;7.00;;;7.50;99.90;;;;;;5011582;28;20423;-84
2021/04/30 00:37:31;;;;;;;9.00;8.07;;;7.50;99.90;;;;;;5011561;28;20189;-84
2021/04/30 00:39:57;;;;;;;8.23;7.47;;;7.50;99.90;;;;;;5011048;28;20481;-84
2021/04/30 00:42:23;;;;;;;7.07;6.47;;;7.50;99.90;;;;;;5011556;28;20176;-84
2021/04/30 00:44:48;;;;;;;7.20;6.60;;;7.60;99.90;;;;;;5012916;28;20195;-86
2021/04/30 00:47:28;;;;;;;7.03;6.33;;;7.50;99.90;;;;;;5013715;28;20181;-77
2021/04/30 00:49:53;;;;;;;8.53;7.23;;;7.50;99.90;;;;;;5015121;28;20207;-77
2021/04/30 00:52:20;;;;;;;8.50;7.70;;;7.50;99.90;;;;;;5015317;28;20502;-77
2021/04/30 00:54:45;;;;;;;7.90;7.10;;;7.50;99.90;;;;;;5015140;28;20239;-77
2021/04/30 00:57:11;;;;;;;7.93;6.40;;;7.50;99.90;;;;;;5015277;28;20419;-77
2021/04/30 00:59:39;;;;;;;8.33;7.30;;;7.50;99.90;;;;;;5014966;28;20216;-76
2021/04/30 01:02:04;;;;;;;7.67;6.70;;;7.50;99.90;;;;;;5013822;28;20432;-77
2021/04/30 01:04:30;;;;;;;8.70;7.80;;;7.50;99.90;;;;;;5015044;28;21022;-77
2021/04/30 01:06:56;;;;;;;10.00;8.33;;;7.50;99.90;;;;;;5014882;28;20204;-77
2021/04/30 01:09:21;;;;;;;8.43;7.60;;;7.50;99.90;;;;;;5014895;28;20279;-77
2021/04/30 01:11:47;;;;;;;8.20;7.50;;;7.40;99.90;;;;;;5014854;28;20192;-77
2021/04/30 01:14:13;;;;;;;9.17;7.90;;;7.40;99.90;;;;;;5014938;28;20174;-77
2021/04/30 01:16:38;;;;;;;8.00;7.10;;;7.40;99.90;;;;;;5014725;28;20787;-77
2021/04/30 01:19:04;;;;;;;8.87;7.97;;;7.40;99.90;;;;;;5013224;28;20257;-77
2021/04/30 01:21:30;;;;;;;9.10;7.73;;;7.40;99.90;;;;;;5014880;28;20161;-77
2021/04/30 01:23:55;;;;;;;9.53;7.83;;;7.40;99.90;;;;;;5014631;28;20177;-77
2021/04/30 01:26:21;;;;;;;12.53;8.37;;;7.30;99.90;;;;;;5014853;28;20207;-78
2021/04/30 01:28:48;;;;;;;9.50;8.50;;;7.30;99.90;;;;;;5014802;28;20592;-77
2021/04/30 01:31:18;;;;;;;10.50;6.90;;;7.30;99.90;;;;;;5014857;28;20319;-77
2021/04/30 01:33:44;;;;;;;8.97;7.90;;;7.30;99.90;;;;;;5015007;28;20492;-77
2021/04/30 01:36:09;;;;;;;8.83;7.93;;;7.30;99.90;;;;;;5014947;28;21149;-77
2021/04/30 01:38:35;;;;;;;11.37;8.40;;;7.30;99.90;;;;;;5014601;28;20195;-78
2021/04/30 01:41:01;;;;;;;7.93;7.07;;;7.30;99.90;;;;;;5014754;28;20242;-78
2021/04/30 01:43:27;;;;;;;8.50;7.03;;;7.30;99.90;;;;;;5015440;28;20700;-78
2021/04/30 01:46:04;;;;;;;9.80;8.80;;;7.30;99.90;;;;;;5014980;28;20426;-77
2021/04/30 01:48:32;;;;;;;8.20;7.40;;;7.40;99.90;;;;;;5015090;28;20685;-78
2021/04/30 01:50:59;;;;;;;8.57;7.53;;;7.40;99.90;;;;;;5014671;28;20890;-78
2021/04/30 01:53:27;;;;;;;9.27;8.30;;;7.40;99.90;;;;;;5013395;28;20430;-78
2021/04/30 01:55:54;;;;;;;14.10;8.60;;;7.40;99.90;;;;;;5013327;28;20445;-78
2021/04/30 01:58:20;;;;;;;9.93;7.87;;;7.40;99.90;;;;;;5014988;28;20435;-78
2021/04/30 02:00:46;;;;;;;9.87;8.53;;;7.40;99.90;;;;;;5014913;28;20462;-78
2021/04/30 02:03:12;;;;;;;10.03;8.77;;;7.40;99.90;;;;;;5013265;28;20394;-77
2021/04/30 02:05:39;;;;;;;9.23;7.80;;;7.40;99.90;;;;;;5014436;28;20177;-77
2021/04/30 02:08:07;;;;;;;8.87;7.97;;;7.40;99.90;;;;;;5014647;28;20414;-78
2021/04/30 02:10:33;;;;;;;11.80;8.60;;;7.40;99.90;;;;;;5014550;28;20454;-79
2021/04/30 02:12:59;;;;;;;12.40;8.73;;;7.40;99.90;;;;;;5014778;28;20447;-80
2021/04/30 02:15:28;;;;;;;9.70;8.00;;;7.40;99.90;;;;;;5014433;28;20538;-80
2021/04/30 02:17:54;;;;;;;9.40;8.27;;;7.40;99.90;;;;;;5014474;28;20453;-80
2021/04/30 02:20:20;;;;;;;10.60;8.27;;;7.40;99.90;;;;;;5014311;28;20471;-80
2021/04/30 02:22:46;;;;;;;9.70;8.30;;;7.40;99.90;;;;;;5012803;28;20485;-80
2021/04/30 02:25:14;;;;;;;10.50;9.30;;;7.40;99.90;;;;;;5009159;28;20481;-80
2021/04/30 02:27:40;;;;;;;11.10;7.90;;;7.50;99.90;;;;;;5014063;28;20424;-80
2021/04/30 02:30:08;;;;;;;13.87;9.10;;;7.50;99.90;;;;;;5013986;28;21026;-80
2021/04/30 02:32:34;;;;;;;10.07;9.00;;;7.50;99.90;;;;;;5011232;28;20440;-80
2021/04/30 02:35:01;;;;;;;10.37;9.27;;;7.50;99.90;;;;;;5014163;28;20500;-80
2021/04/30 02:37:26;;;;;;;12.60;9.50;;;7.50;99.90;;;;;;5014650;28;20199;-80
2021/04/30 02:39:52;;;;;;;11.80;9.97;;;7.40;99.90;;;;;;5005362;28;20474;-80
2021/04/30 02:42:19;;;;;;;13.37;10.30;;;7.40;99.90;;;;;;5008494;28;20689;-80
2021/04/30 02:44:44;;;;;;;14.07;9.87;;;7.40;99.90;;;;;;5014106;28;20181;-79
2021/04/30 02:47:11;;;;;;;11.37;9.53;;;7.40;99.90;;;;;;5000205;28;20802;-80
2021/04/30 02:49:41;;;;;;;11.10;9.33;;;7.40;99.90;;;;;;5008231;28;20215;-80
2021/04/30 02:52:08;;;;;;;10.90;9.53;;;7.40;99.90;;;;;;5014587;28;20438;-80
2021/04/30 02:54:34;;;;;;;10.47;9.37;;;7.30;99.90;;;;;;5014499;28;20451;-80
2021/04/30 02:57:00;;;;;;;12.30;10.47;;;7.30;99.90;;;;;;5013783;28;20437;-80
2021/04/30 02:59:26;;;;;;;12.50;10.53;;;7.20;99.90;;;;;;5014097;28;20463;-80
2021/04/30 03:01:52;;;;;;;11.67;10.20;;;7.10;99.90;;;;;;5013917;28;20454;-80
2021/04/30 03:04:18;;;;;;;12.80;9.90;;;7.10;99.90;;;;;;5012200;28;20512;-80
2021/04/30 03:06:43;;;;;;;11.90;9.17;;;7.00;99.90;;;;;;5012667;28;20183;-80
2021/04/30 03:09:09;;;;;;;10.90;9.57;;;6.90;99.90;;;;;;5013071;28;20589;-79
2021/04/30 03:11:34;;;;;;;11.97;10.27;;;6.90;99.90;;;;;;5013739;28;20225;-80
2021/04/30 03:14:00;;;;;;;13.23;10.00;;;6.90;99.90;;;;;;5013906;28;20188;-80
2021/04/30 03:16:25;;;;;;;10.73;9.53;;;6.90;99.90;;;;;;5014019;28;20256;-80
2021/04/30 03:18:51;;;;;;;15.27;9.47;;;6.80;99.90;;;;;;5013382;28;20657;-80
2021/04/30 03:21:16;;;;;;;11.73;9.60;;;6.90;99.90;;;;;;5013538;28;20183;-80
2021/04/30 03:23:42;;;;;;;9.63;8.37;;;6.80;99.90;;;;;;5014350;28;20193;-80
2021/04/30 03:26:08;;;;;;;10.13;9.13;;;6.90;99.90;;;;;;5014039;28;20183;-80
2021/04/30 03:28:33;;;;;;;11.30;9.00;;;6.90;99.90;;;;;;5013524;28;20252;-80
2021/04/30 03:30:59;;;;;;;14.30;9.73;;;6.80;99.90;;;;;;5013903;28;20213;-80
2021/04/30 03:33:24;;;;;;;15.13;9.30;;;6.80;99.90;;;;;;5013443;28;20218;-80
2021/04/30 03:35:50;;;;;;;10.53;9.00;;;6.80;99.90;;;;;;5013941;28;20560;-80
2021/04/30 03:38:15;;;;;;;9.93;8.93;;;6.70;99.90;;;;;;5013676;28;20184;-80
2021/04/30 03:40:41;;;;;;;11.83;9.57;;;6.80;99.90;;;;;;5013396;28;20301;-80
2021/04/30 03:43:07;;;;;;;13.97;10.03;;;6.80;99.90;;;;;;5013509;28;20193;-80
2021/04/30 03:45:32;;;;;;;11.83;9.43;;;6.70;99.90;;;;;;5013684;28;20635;-80
2021/04/30 03:47:59;;;;;;;11.03;8.60;;;6.70;99.90;;;;;;5013942;28;20171;-80
2021/04/30 03:50:24;;;;;;;10.33;9.17;;;6.70;99.90;;;;;;5013498;28;20204;-80
2021/04/30 03:52:50;;;;;;;12.13;9.90;;;6.70;99.90;;;;;;5017274;28;20461;-80
2021/04/30 03:55:16;;;;;;;12.73;10.40;;;6.80;99.90;;;;;;5013308;28;20190;-80
2021/04/30 03:57:42;;;;;;;14.20;10.43;;;6.80;99.90;;;;;;5012447;28;20244;-80
2021/04/30 04:00:08;;;;;;;10.40;9.23;;;6.80;99.90;;;;;;5012283;28;20229;-80
2021/04/30 04:02:33;;;;;;;13.73;10.37;;;6.90;99.90;;;;;;5012072;28;20435;-80
2021/04/30 04:04:59;;;;;;;14.63;10.87;;;6.90;99.90;;;;;;5012165;28;20486;-79
2021/04/30 04:07:25;;;;;;;15.70;10.10;;;6.90;99.90;;;;;;5011887;28;20276;-78
2021/04/30 04:09:50;;;;;;;12.23;10.30;;;6.90;99.90;;;;;;5012279;28;20684;-79
2021/04/30 04:12:16;;;;;;;12.37;10.33;;;6.90;99.90;;;;;;5011047;28;20245;-80
2021/04/30 04:14:43;;;;;;;13.60;9.00;;;7.00;99.90;;;;;;5008330;28;20188;-79
2021/04/30 04:17:08;;;;;;;14.13;11.23;;;7.00;99.90;;;;;;5009808;28;20200;-79
2021/04/30 04:19:34;;;;;;;11.87;10.60;;;7.00;99.90;;;;;;5009820;28;21054;-79
2021/04/30 04:21:59;;;;;;;12.60;10.50;;;7.10;99.90;;;;;;5015708;28;20247;-79
2021/04/30 04:24:25;;;;;;;13.60;10.57;;;7.20;99.90;;;;;;5011407;28;20196;-85
2021/04/30 04:26:50;;;;;;;15.40;11.00;;;7.20;99.90;;;;;;5026999;28;20187;-85
2021/04/30 04:29:16;;;;;;;11.80;9.90;;;7.20;99.90;;;;;;5015125;28;20290;-85
2021/04/30 04:31:42;;;;;;;16.30;11.27;;;7.20;99.90;;;;;;5013655;28;20218;-86
2021/04/30 04:34:07;;;;;;;12.53;10.90;;;7.20;99.90;;;;;;5014267;28;20183;-86
2021/04/30 04:36:33;;;;;;;14.23;10.30;;;7.20;99.90;;;;;;5013983;28;20663;-86
2021/04/30 04:38:59;;;;;;;13.87;11.10;;;7.20;99.90;;;;;;5015236;28;20226;-86
2021/04/30 04:41:24;;;;;;;13.30;10.40;;;7.30;99.90;;;;;;5015274;28;20194;-85
2021/04/30 04:43:50;;;;;;;14.20;11.17;;;7.30;99.90;;;;;;5015531;28;20185;-84
2021/04/30 04:46:16;;;;;;;16.33;10.60;;;7.30;99.90;;;;;;5014973;28;20626;-87
2021/04/30 04:48:41;;;;;;;15.47;10.83;;;7.40;99.90;;;;;;5015648;28;20259;-86
2021/04/30 04:51:07;;;;;;;15.93;11.30;;;7.40;99.90;;;;;;5015211;28;20180;-87
2021/04/30 04:53:32;;;;;;;13.97;11.00;;;7.40;99.90;;;;;;5011322;28;20194;-79
2021/04/30 04:55:58;;;;;;;13.43;11.20;;;7.40;99.90;;;;;;5013247;28;20195;-80
2021/04/30 04:58:26;;;;;;;19.10;11.17;;;7.50;99.90;;;;;;5014174;28;20239;-79
2021/04/30 05:00:52;;;;;;;15.63;12.43;;;7.50;99.90;;;;;;5013308;28;20246;-79
2021/04/30 05:03:17;;;;;;;14.30;12.07;;;7.60;99.90;;;;;;5013300;28;20511;-83
2021/04/30 05:05:43;;;;;;;14.43;11.27;;;7.60;99.90;;;;;;5015147;28;20184;-82
2021/04/30 05:08:09;;;;;;;13.43;10.93;;;7.70;99.90;;;;;;5009365;28;20216;-83
2021/04/30 05:10:35;;;;;;;15.37;12.50;;;7.70;99.90;;;;;;5013561;28;20217;-83
2021/04/30 05:13:00;;;;;;;14.70;12.07;;;7.60;99.90;;;;;;5014340;28;20473;-81
2021/04/30 05:15:26;;;;;;;19.20;10.60;;;7.70;99.90;;;;;;5014939;28;20182;-78
2021/04/30 05:17:52;;;;;;;15.20;11.00;;;7.80;99.90;;;;;;5015656;28;20200;-80
2021/04/30 05:20:17;;;;;;;17.07;12.30;;;7.80;99.90;;;;;;5015225;28;20207;-81
2021/04/30 05:22:44;;;;;;;18.17;13.13;;;7.80;99.90;;;;;;5017063;28;20209;-80
2021/04/30 05:25:11;;;;;;;14.97;11.17;;;7.90;99.90;;;;;;5016746;28;20642;-81
2021/04/30 05:27:43;;;;;;;16.20;12.67;;;7.90;99.90;;;;;;5017676;28;20430;-81
2021/04/30 05:30:13;;;;;;;16.13;11.40;;;7.90;99.90;;;;;;5013385;28;20461;-80
2021/04/30 05:32:39;;;;;;;14.37;11.57;;;7.90;99.90;;;;;;5020261;28;20523;-80
2021/04/30 05:35:06;;;;;;;16.70;10.57;;;8.00;99.90;;;;;;5014528;28;20444;-79
2021/04/30 05:37:32;;;;;;;13.00;10.80;;;8.00;99.90;;;;;;5015666;28;20422;-80
2021/04/30 05:39:59;;;;;;;17.33;11.20;;;8.10;99.90;;;;;;5015765;28;20450;-80
2021/04/30 05:42:25;;;;;;;16.20;11.60;;;8.20;99.90;;;;;;5015382;28;20433;-79
2021/04/30 05:44:52;;;;;;;13.50;10.80;;;8.20;99.90;;;;;;5015731;28;20448;-80
2021/04/30 05:47:18;;;;;;;19.97;12.53;;;8.30;99.90;;;;;;5016233;28;20428;-79
2021/04/30 05:49:44;;;;;;;13.90;12.40;;;8.30;99.90;;;;;;5018646;28;20491;-79
2021/04/30 05:52:09;;;;;;;14.00;12.07;;;8.30;99.90;;;;;;5015923;28;20201;-79
2021/04/30 05:54:35;;;;;;;18.97;12.90;;;8.40;99.90;;;;;;5018961;28;20184;-79
2021/04/30 05:57:00;;;;;;;16.10;12.93;;;8.40;99.90;;;;;;5015336;28;20206;-78
2021/04/30 05:59:26;;;;;;;15.73;12.03;;;8.40;99.90;;;;;;5017273;28;20230;-79
2021/04/30 06:01:51;;;;;;;18.67;12.77;;;8.40;99.90;;;;;;5014627;28;20188;-79
2021/04/30 06:04:18;;;;;;;16.77;11.50;;;8.40;99.90;;;;;;5014158;28;20185;-79
2021/04/30 06:06:50;;;;;;;15.13;11.33;;;8.40;99.90;;;;;;5014294;28;20658;-79
2021/04/30 06:09:16;;;;;;;14.87;11.10;;;8.50;99.90;;;;;;5018089;28;20494;-79
2021/04/30 06:11:42;;;;;;;16.37;12.27;;;8.60;99.90;;;;;;5019396;28;20440;-79
2021/04/30 06:14:07;;;;;;;15.10;10.70;;;8.70;99.90;;;;;;5017789;28;20448;-79
2021/04/30 06:16:33;;;;;;;14.90;11.67;;;8.70;99.90;;;;;;5015869;28;20454;-80
2021/04/30 06:18:58;;;;;;;12.63;11.30;;;8.70;99.90;;;;;;5021809;28;20193;-79
2021/04/30 06:21:24;;;;;;;20.57;11.97;;;8.80;99.90;;;;;;5013694;28;20208;-79
2021/04/30 06:23:49;;;;;;;15.17;12.30;;;8.80;99.90;;;;;;5010958;28;20251;-79
2021/04/30 06:26:15;;;;;;;14.50;12.40;;;8.70;99.90;;;;;;5012367;28;20192;-80
2021/04/30 06:28:41;;;;;;;19.00;12.30;;;8.70;99.90;;;;;;5012568;28;20216;-80
2021/04/30 06:31:06;;;;;;;12.27;9.80;;;8.80;99.90;;;;;;5011480;28;20275;-80
2021/04/30 06:33:32;;;;;;;14.47;11.03;;;8.80;99.90;;;;;;5013437;28;20187;-80
2021/04/30 06:35:59;;;;;;;16.83;10.87;;;8.80;99.90;;;;;;5010864;28;20192;-80
2021/04/30 06:38:24;;;;;;;15.97;9.67;;;8.70;99.90;;;;;;5015501;28;20178;-80
2021/04/30 06:40:50;;;;;;;15.77;11.00;;;8.60;99.90;;;;;;5006761;28;20509;-80
2021/04/30 06:43:15;;;;;;;12.10;10.07;;;8.60;99.90;;;;;;5012473;28;20185;-80
2021/04/30 06:45:41;;;;;;;16.37;10.97;;;8.60;99.90;;;;;;5011351;28;20182;-79
2021/04/30 06:48:07;;;;;;;13.37;9.70;;;8.50;99.90;;;;;;5009436;28;20179;-81
2021/04/30 06:50:33;;;;;;;11.53;9.30;;;8.60;99.90;;;;;;5013691;28;20217;-80
2021/04/30 06:52:58;;;;;;;12.53;10.80;;;8.60;99.90;;;;;;5012963;28;20439;-80
2021/04/30 06:55:24;;;;;;;13.30;9.83;;;8.60;99.90;;;;;;5012810;28;20180;-80
2021/04/30 06:57:50;;;;;;;10.53;9.40;;;8.60;99.90;;;;;;5010323;28;20210;-81
2021/04/30 07:00:17;;;;;;;12.63;10.00;;;8.60;99.90;;;;;;5013405;28;20638;-81
2021/04/30 07:02:46;;;;;;;15.80;10.27;;;8.60;99.90;;;;;;5011819;28;20249;-79
2021/04/30 07:05:13;;;;;;;17.30;11.83;;;8.60;99.90;;;;;;5028571;28;20423;-80
2021/04/30 07:07:40;;;;;;;11.47;9.73;;;8.60;99.90;;;;;;5014484;28;20423;-80
2021/04/30 07:10:06;;;;;;;14.60;11.03;;;8.50;99.90;;;;;;5011359;28;20459;-80
2021/04/30 07:12:32;;;;;;;12.53;10.40;;;8.50;99.90;;;;;;5013535;28;20428;-80
2021/04/30 07:14:58;;;;;;;13.43;10.23;;;8.60;99.90;;;;;;5011753;28;20790;-80
2021/04/30 07:17:24;;;;;;;14.10;10.40;;;8.60;99.90;;;;;;5012169;28;20448;-80
2021/04/30 07:19:50;;;;;;;14.37;11.00;;;8.70;99.90;;;;;;5012303;28;20476;-80
2021/04/30 07:22:15;;;;;;;13.13;9.73;;;8.70;99.90;;;;;;5013696;28;20185;-80
2021/04/30 07:24:41;;;;;;;15.20;11.10;;;8.60;99.90;;;;;;5016040;28;20181;-80
2021/04/30 07:27:07;;;;;;;12.57;9.60;;;8.70;99.90;;;;;;5014964;28;20182;-80
2021/04/30 07:29:34;;;;;;;13.20;10.27;;;8.80;99.90;;;;;;5017477;28;20526;-80
2021/04/30 07:32:00;;;;;;;14.67;11.37;;;8.80;99.90;;;;;;5011088;28;20507;-80
2021/04/30 07:34:26;;;;;;;16.93;11.10;;;8.80;99.90;;;;;;5018374;28;20425;-80
2021/04/30 07:36:51;;;;;;;13.50;10.43;;;8.80;99.90;;;;;;5014428;28;20522;-80
2021/04/30 07:39:18;;;;;;;12.73;10.97;;;8.90;99.90;;;;;;5015906;28;20707;-81
2021/04/30 07:41:43;;;;;;;11.97;10.63;;;8.90;99.90;;;;;;5014761;28;20541;-80
2021/04/30 07:44:09;;;;;;;11.00;9.70;;;8.90;99.90;;;;;;5013228;28;20487;-80
2021/04/30 07:46:35;;;;;;;13.60;10.60;;;9.00;99.90;;;;;;5012045;28;20913;-80
2021/04/30 07:49:00;;;;;;;10.80;9.57;;;9.00;99.90;;;;;;5010146;28;20400;-81
2021/04/30 07:51:26;;;;;;;13.63;10.80;;;9.00;99.90;;;;;;5014228;28;20176;-81
2021/04/30 07:53:51;;;;;;;11.90;9.77;;;9.00;99.90;;;;;;5012212;28;20185;-80
2021/04/30 07:56:17;;;;;;;12.00;10.53;;;9.10;99.90;;;;;;5009376;28;20187;-80
2021/04/30 07:58:42;;;;;;;14.87;9.63;;;9.10;99.90;;;;;;5010421;28;20176;-81
2021/04/30 08:01:08;;;;;;;11.80;9.90;;;9.10;99.90;;;;;;5011541;28;20213;-80
2021/04/30 08:03:34;;;;;;;12.60;9.20;;;9.10;99.90;;;;;;5012442;28;20181;-79
2021/04/30 08:05:59;;;;;;;11.20;9.60;;;9.00;99.90;;;;;;5011943;28;20348;-81
2021/04/30 08:08:25;;;;;;;11.53;9.70;;;9.00;99.90;;;;;;5018284;28;20207;-79
2021/04/30 08:10:50;;;;;;;13.50;9.60;;;9.00;99.90;;;;;;5016362;28;20627;-79
2021/04/30 08:13:16;;;;;;;13.50;11.23;;;9.00;99.90;;;;;;5019327;28;20675;-80
2021/04/30 08:15:42;;;;;;;12.60;9.87;;;9.00;99.90;;;;;;5014060;28;20250;-80
2021/04/30 08:18:08;;;;;;;13.87;9.93;;;9.10;99.90;;;;;;5017595;28;20434;-80
2021/04/30 08:20:34;;;;;;;21.13;9.97;;;9.00;99.90;;;;;;5019197;28;20215;-80
2021/04/30 08:22:59;;;;;;;13.90;10.27;;;9.00;99.90;;;;;;5018372;28;20314;-80
2021/04/30 08:25:25;;;;;;;16.73;11.03;;;8.90;99.90;;;;;;5020934;28;20430;-80
2021/04/30 08:27:51;;;;;;;13.70;10.87;;;9.00;99.90;;;;;;5017708;28;20855;-80
2021/04/30 08:30:17;;;;;;;16.23;11.00;;;8.90;99.90;;;;;;5021455;28;20209;-80
2021/04/30 08:32:43;;;;;;;18.40;12.33;;;8.70;99.90;;;;;;5017409;28;20210;-81
2021/04/30 08:35:09;;;;;;;14.47;11.50;;;8.70;99.90;;;;;;5021733;28;20433;-81
2021/04/30 08:37:34;;;;;;;12.67;11.30;;;8.80;99.90;;;;;;5020297;28;20445;-80
2021/04/30 08:40:00;;;;;;;12.70;10.73;;;8.80;99.90;;;;;;5016247;28;20879;-80
2021/04/30 08:42:27;;;;;;;15.53;12.00;;;8.80;99.90;;;;;;5023049;28;20593;-81
2021/04/30 08:44:53;;;;;;;17.00;10.67;;;8.90;99.90;;;;;;5015141;28;20463;-81
2021/04/30 08:47:20;;;;;;;14.80;11.53;;;9.00;99.90;;;;;;5015503;28;20851;-81
2021/04/30 08:49:47;;;;;;;15.13;11.50;;;8.90;99.90;;;;;;5011938;28;20710;-81
2021/04/30 08:52:16;;;;;;;23.93;10.80;;;9.00;99.90;;;;;;5011517;28;20449;-80
2021/04/30 08:54:42;;;;;;;14.10;10.50;;;9.00;99.90;;;;;;5012393;28;20920;-84
2021/04/30 08:57:10;;;;;;;14.63;12.27;;;9.20;99.90;;;;;;5012652;28;21004;-81
2021/04/30 08:59:36;;;;;;;19.00;12.03;;;9.30;99.90;;;;;;5012549;28;20548;-81
2021/04/30 09:02:02;;;;;;;12.93;10.60;;;9.20;99.90;;;;;;5012060;28;20427;-80
2021/04/30 09:04:32;;;;;;;17.57;12.50;;;9.30;99.90;;;;;;5013377;28;20449;-81
2021/04/30 09:07:15;;;;;;;16.70;12.57;;;9.20;99.90;;;;;;5016516;28;20422;-81
2021/04/30 09:10:02;;;;;;;13.03;11.43;;;9.20;99.90;;;;;;5014800;28;20476;-82
2021/04/30 09:12:28;;;;;;;17.80;11.80;;;9.30;99.90;;;;;;5012114;28;20784;-84
2021/04/30 09:14:55;;;;;;;17.00;12.40;;;9.40;99.90;;;;;;5015171;28;20822;-83
2021/04/30 09:17:22;;;;;;;14.83;11.97;;;9.40;99.90;;;;;;5010466;28;20481;-82
2021/04/30 09:20:00;;;;;;;13.93;12.10;;;9.30;99.90;;;;;;5013532;28;20481;-84
2021/04/30 09:22:32;;;;;;;18.47;13.77;;;9.30;99.90;;;;;;5015181;28;20430;-82
2021/04/30 09:25:00;;;;;;;17.00;12.47;;;9.20;99.90;;;;;;5015431;28;20786;-84
2021/04/30 09:27:34;;;;;;;21.63;13.00;;;9.10;99.90;;;;;;5015649;28;20454;-82
2021/04/30 09:30:19;;;;;;;14.20;12.20;;;9.00;99.90;;;;;;5015377;28;20552;-84
2021/04/30 09:33:07;;;;;;;12.47;11.13;;;9.10;99.90;;;;;;5015037;28;20424;-82
2021/04/30 09:35:38;;;;;;;21.93;14.53;;;9.10;99.90;;;;;;5013732;28;20462;-82
2021/04/30 09:38:34;;;;;;;18.63;12.53;;;9.10;99.90;;;;;;5016125;28;20477;-82
2021/04/30 09:41:07;;;;;;;15.43;12.47;;;9.10;99.90;;;;;;5013894;28;20492;-83
2021/04/30 09:43:45;;;;;;;16.10;13.97;;;9.20;99.90;;;;;;5015797;28;21006;-82
2021/04/30 09:46:31;;;;;;;15.07;13.00;;;9.20;99.90;;;;;;5016204;28;20489;-82
2021/04/30 09:49:01;;;;;;;15.00;12.87;;;9.20;99.90;;;;;;4996390;28;20788;-82
2021/04/30 09:51:54;;;;;;;21.80;15.90;;;9.20;99.90;;;;;;5003096;28;20460;-82
2021/04/30 09:54:24;;;;;;;16.33;12.70;;;8.80;99.90;;;;;;5014098;28;20473;-82
2021/04/30 09:57:06;;;;;;;16.13;14.37;;;9.00;99.90;;;;;;5003593;28;20430;-82
2021/04/30 09:59:32;;;;;;;14.47;12.97;;;9.10;99.90;;;;;;5000843;28;20959;-82
2021/04/30 10:02:12;;;;;;;16.33;12.27;;;9.10;99.90;;;;;;5017469;28;20439;-82
2021/04/30 10:04:40;;;;;;;25.47;14.50;;;9.10;99.90;;;;;;5017087;28;20540;-81
2021/04/30 10:07:06;;;;;;;17.37;13.20;;;9.10;99.90;;;;;;5017282;28;20414;-82
2021/04/30 10:09:33;;;;;;;18.60;15.17;;;9.20;99.90;;;;;;5017624;28;21040;-82
2021/04/30 10:12:17;;;;;;;18.60;14.10;;;9.10;99.90;;;;;;5017395;28;20456;-82
2021/04/30 10:14:43;;;;;;;19.00;15.47;;;9.00;99.90;;;;;;5017402;28;20476;-82
2021/04/30 10:17:09;;;;;;;20.60;15.00;;;8.90;99.90;;;;;;5017125;28;20442;-82
2021/04/30 10:19:34;;;;;;;16.30;14.23;;;8.90;99.90;;;;;;5015935;28;20211;-82
2021/04/30 10:22:02;;;;;;;24.83;15.20;;;8.80;99.90;;;;;;5016123;28;20187;-81
2021/04/30 10:24:29;;;;;;;23.17;16.50;;;8.80;99.90;;;;;;5016645;28;20211;-82
2021/04/30 10:26:56;;;;;;;20.70;15.90;;;8.90;99.90;;;;;;5016647;28;20918;-81
2021/04/30 10:29:25;;;;;;;21.40;15.80;;;8.90;99.90;;;;;;5016667;28;20461;-82
2021/04/30 10:31:52;;;;;;;19.53;15.17;;;9.00;99.90;;;;;;5013214;28;20527;-83
2021/04/30 10:34:23;;;;;;;21.90;16.63;;;8.90;99.90;;;;;;5015431;28;20916;-82
2021/04/30 10:36:59;;;;;;;26.20;16.80;;;8.90;99.90;;;;;;5003949;28;20437;-82
2021/04/30 10:39:34;;;;;;;22.23;17.37;;;8.80;99.90;;;;;;5012975;28;20472;-82
2021/04/30 10:42:15;;;;;;;24.93;18.80;;;8.80;99.90;;;;;;5013087;28;20426;-82
2021/04/30 10:44:43;;;;;;;21.20;17.30;;;8.70;99.90;;;;;;5012606;28;20475;-81
2021/04/30 10:47:11;;;;;;;24.33;18.17;;;8.60;99.90;;;;;;5011997;28;20452;-82
2021/04/30 10:49:37;;;;;;;25.83;17.83;;;8.50;99.90;;;;;;5011893;28;20934;-82
2021/04/30 10:52:06;;;;;;;25.90;18.97;;;8.40;99.90;;;;;;5013240;28;20460;-82
2021/04/30 10:54:36;;;;;;;25.53;18.80;;;8.40;99.90;;;;;;5010817;28;20182;-82
2021/04/30 10:57:10;;;;;;;26.13;20.57;;;8.30;99.90;;;;;;5009177;28;21005;-82
2021/04/30 10:59:36;;;;;;;28.97;19.50;;;8.30;99.90;;;;;;5011898;28;20468;-82
2021/04/30 11:02:30;;;;;;;27.57;18.30;;;8.20;99.90;;;;;;5011993;28;20430;-82
2021/04/30 11:05:09;;;;;;;22.57;16.20;;;8.10;99.90;;;;;;5014041;28;20678;-82
2021/04/30 11:07:54;;;;;;;24.00;17.10;;;8.10;99.90;;;;;;5014334;28;20439;-83
2021/04/30 11:10:40;;;;;;;23.90;18.30;;;8.00;99.90;;;;;;5012292;28;20595;-83
2021/04/30 11:13:14;;;;;;;20.27;15.73;;;8.00;99.90;;;;;;5012961;28;20433;-82
2021/04/30 11:15:45;;;;;;;24.50;18.60;;;8.00;99.90;;;;;;5017200;28;20507;-85
2021/04/30 11:18:18;;;;;;;26.27;18.07;;;8.00;99.90;;;;;;5013220;28;20934;-86
2021/04/30 11:20:44;;;;;;;26.13;18.47;;;7.90;99.90;;;;;;5012763;28;20478;-86
2021/04/30 11:23:18;;;;;;;25.17;17.87;;;7.80;99.90;;;;;;5013304;28;20443;-84
2021/04/30 11:25:57;;;;;;;29.03;19.50;;;7.70;99.90;;;;;;5012767;28;20171;-85
2021/04/30 11:28:33;;;;;;;23.10;18.47;;;7.60;99.90;;;;;;5002800;28;20866;-85
2021/04/30 11:31:05;;;;;;;23.53;17.00;;;7.50;99.90;;;;;;5010040;28;20494;-85
2021/04/30 11:33:32;;;;;;;28.50;17.40;;;7.50;99.90;;;;;;5012305;28;20451;-86
2021/04/30 11:35:59;;;;;;;27.43;18.23;;;7.50;99.90;;;;;;5013912;28;20432;-82
2021/04/30 11:38:35;;;;;;;25.83;16.83;;;7.50;99.90;;;;;;5017623;28;20505;-83
2021/04/30 11:41:01;;;;;;;27.20;18.00;;;7.50;99.90;;;;;;5014098;28;20854;-84
2021/04/30 11:43:27;;;;;;;32.13;16.80;;;7.60;99.90;;;;;;5012687;28;20923;-85
2021/04/30 11:45:55;;;;;;;21.50;16.20;;;7.60;99.90;;;;;;5005375;28;20434;-85
2021/04/30 11:48:26;;;;;;;28.47;18.80;;;7.50;99.90;;;;;;5023906;28;20621;-85
2021/04/30 11:53:26;;;;;;;24.60;17.00;;;7.30;99.90;;;;;;5078772;28;20519;-73
2021/04/30 11:55:53;;;;;;;22.43;16.17;;;7.20;99.90;;;;;;5075413;28;20432;-74
2021/04/30 11:58:19;;;;;;;27.40;17.43;;;7.30;99.90;;;;;;5068191;28;20994;-74
2021/04/30 12:00:51;;;;;;;23.30;16.30;;;7.20;99.90;;;;;;5070729;28;20462;-74
2021/04/30 12:03:17;;;;;;;18.33;14.43;;;7.10;99.90;;;;;;5069724;28;20193;-75
2021/04/30 12:05:44;;;;;;;21.90;15.07;;;7.10;99.90;;;;;;5066125;28;20444;-74
2021/04/30 12:08:10;;;;;;;22.30;15.17;;;7.20;99.90;;;;;;5063628;28;20223;-75
2021/04/30 12:10:37;;;;;;;23.93;14.93;;;7.10;99.90;;;;;;5063923;28;20433;-74
2021/04/30 12:13:06;;;;;;;20.50;14.10;;;7.00;99.90;;;;;;5062417;28;20420;-74
2021/04/30 12:15:37;;;;;;;21.13;15.93;;;7.00;99.90;;;;;;5067698;28;20447;-74
2021/04/30 12:18:04;;;;;;;18.20;14.40;;;6.90;99.90;;;;;;5069648;28;20516;-75
2021/04/30 12:20:32;;;;;;;26.67;16.73;;;7.00;99.90;;;;;;5065045;28;20524;-75
2021/04/30 12:23:03;;;;;;;21.53;16.50;;;7.00;99.90;;;;;;5068554;28;20789;-75
2021/04/30 12:25:32;;;;;;;22.63;16.67;;;7.00;99.90;;;;;;5067319;28;20471;-74
2021/04/30 12:28:15;;;;;;;24.80;16.20;;;7.00;99.90;;;;;;5067543;28;20423;-74
2021/04/30 12:30:41;;;;;;;20.73;15.47;;;7.00;99.90;;;;;;5068717;28;20439;-74
2021/04/30 12:33:08;;;;;;;24.20;16.33;;;7.00;99.90;;;;;;5073053;28;20418;-74
2021/04/30 12:35:34;;;;;;;29.93;17.30;;;7.00;99.90;;;;;;5071193;28;20423;-72
2021/04/30 12:38:00;;;;;;;27.70;16.50;;;7.00;99.90;;;;;;5072125;28;20442;-73
2021/04/30 12:40:29;;;;;;;23.43;16.57;;;7.00;99.90;;;;;;5073664;28;20447;-72
2021/04/30 12:42:57;;;;;;;22.73;19.00;;;7.00;99.90;;;;;;5076144;28;20409;-71
2021/04/30 12:45:24;;;;;;;22.37;16.83;;;7.10;99.90;;;;;;5070964;28;20419;-76
2021/04/30 12:47:53;;;;;;;20.40;16.27;;;7.20;99.90;;;;;;5076590;28;20386;-76